Time;durP1;ratioP1;P1;durP2;ratioP2;P2;SDS_P1;SDS_P2;PMS_P1;PMS_P2;Temp;Humidity;BMP_temperature;BMP_pressure;BME280_temperature;BME280_humidity;BME280_pressure;Samples;Min_cycle;Max_cycle;Signal;HPM_P1;HPM_P2
2023/09/04 00:01:01;;;;;;;4.82;3.83;;;;;;;11.06;100.00;99773.91;4110394;28;20159;-74
2023/09/04 00:03:02;;;;;;;7.30;4.15;;;;;;;11.03;100.00;99767.13;4114979;28;20055;-75
2023/09/04 00:05:03;;;;;;;6.88;4.13;;;;;;;11.07;100.00;99761.69;4121455;28;20180;-75
2023/09/04 00:07:03;;;;;;;6.03;3.75;;;;;;;11.09;100.00;99760.19;4107634;28;20047;-75
2023/09/04 00:09:04;;;;;;;4.80;3.97;;;;;;;11.09;100.00;99764.91;4105165;28;20072;-75
2023/09/04 00:11:04;;;;;;;5.57;4.00;;;;;;;11.10;100.00;99759.03;4114326;28;20061;-74
2023/09/04 00:13:04;;;;;;;6.60;3.92;;;;;;;11.09;100.00;99754.66;4105604;28;20043;-75
2023/09/04 00:15:05;;;;;;;4.85;4.22;;;;;;;11.05;100.00;99759.25;4112467;28;20101;-75
2023/09/04 00:17:06;;;;;;;4.68;3.55;;;;;;;11.11;100.00;99762.59;4108064;28;20528;-75
2023/09/04 00:19:06;;;;;;;4.82;4.07;;;;;;;11.07;100.00;99762.50;4105843;28;20049;-75
2023/09/04 00:21:07;;;;;;;4.85;3.20;;;;;;;11.07;100.00;99756.94;4116379;28;20085;-75
2023/09/04 00:23:07;;;;;;;6.40;3.70;;;;;;;11.05;100.00;99762.03;4116448;28;20062;-74
2023/09/04 00:25:07;;;;;;;5.40;3.35;;;;;;;11.01;100.00;99774.97;4105914;28;20138;-74
2023/09/04 00:27:08;;;;;;;4.72;3.83;;;;;;;10.98;100.00;99776.47;4111381;28;20054;-75
2023/09/04 00:29:08;;;;;;;5.03;3.30;;;;;;;10.90;100.00;99765.53;4120865;28;20492;-74
2023/09/04 00:31:09;;;;;;;4.32;3.10;;;;;;;10.84;100.00;99767.75;4112877;28;20065;-74
2023/09/04 00:33:09;;;;;;;5.32;3.65;;;;;;;10.83;100.00;99768.06;4117972;28;20046;-74
2023/09/04 00:35:12;;;;;;;4.50;3.40;;;;;;;10.81;100.00;99757.34;4119485;28;20074;-74
2023/09/04 00:37:13;;;;;;;4.72;3.40;;;;;;;10.78;100.00;99765.56;4112682;28;20074;-75
2023/09/04 00:39:13;;;;;;;5.45;4.03;;;;;;;10.69;100.00;99769.25;4110011;28;20444;-75
2023/09/04 00:41:15;;;;;;;4.55;3.90;;;;;;;10.68;100.00;99773.19;4106912;28;20051;-74
2023/09/04 00:43:16;;;;;;;5.57;3.85;;;;;;;10.66;100.00;99775.47;4104998;28;20150;-75
2023/09/04 00:45:16;;;;;;;7.72;4.13;;;;;;;10.69;100.00;99782.28;4109225;28;20089;-74
2023/09/04 00:47:18;;;;;;;5.35;4.30;;;;;;;10.66;100.00;99781.00;4105318;28;20509;-74
2023/09/04 00:49:19;;;;;;;6.57;4.30;;;;;;;10.66;100.00;99781.00;4105951;28;20344;-74
2023/09/04 00:51:19;;;;;;;5.00;4.32;;;;;;;10.66;100.00;99781.00;4115442;28;20133;-75
2023/09/04 00:53:20;;;;;;;4.50;3.85;;;;;;;10.64;100.00;99779.75;4105194;28;20501;-74
2023/09/04 00:55:21;;;;;;;5.90;4.10;;;;;;;10.66;100.00;99774.66;4113120;28;20058;-74
2023/09/04 00:57:22;;;;;;;5.13;3.63;;;;;;;10.66;100.00;99778.25;4121104;28;20038;-74
2023/09/04 00:59:24;;;;;;;4.72;4.00;;;;;;;10.68;100.00;99783.44;4119217;28;20104;-75
2023/09/04 01:01:25;;;;;;;6.00;3.78;;;;;;;10.72;100.00;99783.56;4116675;28;20059;-75
2023/09/04 01:03:27;;;;;;;6.77;4.00;;;;;;;10.68;100.00;99783.44;4120280;28;20231;-75
2023/09/04 01:05:29;;;;;;;4.82;4.07;;;;;;;10.65;100.00;99784.13;4113230;28;20058;-74
2023/09/04 01:07:30;;;;;;;;;;;;;;;10.63;100.00;99781.72;4110788;28;20429;-75
2023/09/04 01:09:30;;;;;;;4.45;3.83;;;;;;;10.63;100.00;99784.47;4105264;28;20030;-74
2023/09/04 01:11:57;;;;;;;5.03;3.70;;;;;;;10.58;100.00;99787.47;4104604;28;20085;-74
2023/09/04 01:13:58;;;;;;;5.97;3.45;;;;;;;10.56;100.00;99789.78;4102166;28;20054;-74
2023/09/04 01:16:00;;;;;;;5.57;3.53;;;;;;;10.56;100.00;99781.47;4111866;28;20082;-74
2023/09/04 01:18:02;;;;;;;5.93;3.60;;;;;;;10.58;100.00;99789.44;4120199;28;20046;-74
2023/09/04 01:20:24;;;;;;;3.80;3.40;;;;;;;10.59;100.00;99791.03;4115451;28;20031;-75
2023/09/04 01:22:26;;;;;;;4.40;3.85;;;;;;;10.60;100.00;99793.50;4104516;28;20043;-75
2023/09/04 01:24:26;;;;;;;4.80;3.50;;;;;;;10.61;100.00;99780.44;4116265;28;20409;-74
2023/09/04 01:27:03;;;;;;;6.85;4.15;;;;;;;10.61;100.00;99795.09;4120112;28;20046;-75
2023/09/04 01:29:26;;;;;;;6.18;3.80;;;;;;;10.57;100.00;99794.16;4116471;28;20089;-74
2023/09/04 01:31:33;;;;;;;4.20;3.13;;;;;;;10.56;100.00;99795.31;4105029;28;20051;-74
2023/09/04 01:33:39;;;;;;;6.25;4.03;;;;;;;10.49;100.00;99792.31;4111877;28;20131;-74
2023/09/04 01:35:41;;;;;;;4.28;3.22;;;;;;;10.41;100.00;99791.28;4104820;28;20058;-74
2023/09/04 01:37:42;;;;;;;7.53;3.33;;;;;;;10.40;100.00;99792.44;4105347;28;20047;-74
2023/09/04 01:39:44;;;;;;;4.55;3.45;;;;;;;10.35;100.00;99794.63;4104194;28;20137;-74
2023/09/04 01:41:45;;;;;;;6.72;3.45;;;;;;;10.33;100.00;99791.38;4106294;28;20043;-74
2023/09/04 01:43:45;;;;;;;5.15;3.47;;;;;;;10.31;100.00;99797.25;4109582;28;20831;-74
2023/09/04 01:45:46;;;;;;;3.97;3.58;;;;;;;10.32;100.00;99795.31;4111960;28;20211;-74
2023/09/04 01:47:46;;;;;;;7.72;3.58;;;;;;;10.31;100.00;99796.47;4105068;28;20379;-74
2023/09/04 01:49:48;;;;;;;5.40;3.58;;;;;;;10.31;100.00;99790.91;4105088;28;20513;-74
2023/09/04 01:51:49;;;;;;;4.68;3.47;;;;;;;10.33;100.00;99794.94;4105604;28;20138;-74
2023/09/04 01:53:49;;;;;;;4.97;3.58;;;;;;;10.30;100.00;99797.63;4104350;28;20184;-74
2023/09/04 01:55:49;;;;;;;4.45;3.67;;;;;;;10.28;100.00;99794.38;4113221;28;20050;-75
2023/09/04 01:57:50;;;;;;;5.15;3.50;;;;;;;10.26;100.00;99791.13;4119951;28;20042;-74
2023/09/04 01:59:50;;;;;;;4.85;3.42;;;;;;;10.24;100.00;99785.16;4118881;28;20082;-74
2023/09/04 02:01:50;;;;;;;5.13;4.07;;;;;;;10.24;100.00;99785.97;4109634;28;20074;-74
2023/09/04 02:03:56;;;;;;;4.38;3.55;;;;;;;10.18;100.00;99778.19;4104537;28;20090;-74
2023/09/04 02:05:56;;;;;;;5.43;3.75;;;;;;;10.14;100.00;99775.31;4104902;28;20052;-74
2023/09/04 02:07:56;;;;;;;4.57;3.80;;;;;;;10.04;100.00;99767.47;4110077;28;20051;-74
2023/09/04 02:09:57;;;;;;;4.25;3.60;;;;;;;10.06;100.00;99774.25;4118516;28;20350;-74
2023/09/04 02:11:57;;;;;;;5.32;3.58;;;;;;;10.06;100.00;99768.72;4120024;28;20074;-74
2023/09/04 02:13:57;;;;;;;4.93;4.05;;;;;;;10.03;100.00;99766.66;4116850;28;20070;-74
2023/09/04 02:15:58;;;;;;;5.40;3.95;;;;;;;10.00;100.00;99766.53;4104432;28;20066;-74
2023/09/04 02:18:04;;;;;;;5.43;3.80;;;;;;;9.98;100.00;99763.31;4104519;28;20354;-74
2023/09/04 02:20:05;;;;;;;4.63;3.80;;;;;;;9.98;100.00;99766.88;4104580;28;20061;-74
2023/09/04 02:22:05;;;;;;;4.53;3.28;;;;;;;9.98;100.00;99753.06;4114796;28;20110;-75
2023/09/04 02:24:05;;;;;;;4.35;3.42;;;;;;;10.00;100.00;99756.28;4110053;28;20070;-75
2023/09/04 02:26:06;;;;;;;4.55;3.33;;;;;;;10.00;100.00;99752.69;4122419;28;20443;-75
2023/09/04 02:28:06;;;;;;;5.20;3.60;;;;;;;9.97;100.00;99745.09;4116148;28;20027;-75
2023/09/04 02:30:10;;;;;;;3.50;3.05;;;;;;;9.91;100.00;99740.94;4120411;28;20083;-75
2023/09/04 02:32:10;;;;;;;3.63;3.05;;;;;;;9.89;100.00;99738.53;4122223;28;20045;-75
2023/09/04 02:34:12;;;;;;;4.10;3.30;;;;;;;9.85;100.00;99740.38;4117547;28;20030;-74
2023/09/04 02:36:13;;;;;;;4.18;3.40;;;;;;;9.81;100.00;99736.66;4107918;28;20117;-75
2023/09/04 02:38:13;;;;;;;4.93;3.30;;;;;;;9.77;100.00;99736.56;4106937;28;20058;-75
2023/09/04 02:40:14;;;;;;;4.68;3.50;;;;;;;9.73;100.00;99732.84;4113671;28;20497;-74
2023/09/04 02:42:14;;;;;;;5.20;3.53;;;;;;;9.73;100.00;99737.56;4107297;28;20057;-75
2023/09/04 02:44:14;;;;;;;4.43;3.30;;;;;;;9.70;100.00;99725.25;4111478;28;20039;-75
2023/09/04 02:46:15;;;;;;;5.50;3.30;;;;;;;9.72;100.00;99733.19;4114347;28;20149;-75
2023/09/04 02:48:15;;;;;;;4.85;3.20;;;;;;;9.69;100.00;99731.94;4120686;28;20058;-74
2023/09/04 02:50:15;;;;;;;4.40;3.60;;;;;;;9.62;100.00;99726.16;4116263;28;20202;-74
2023/09/04 02:52:16;;;;;;;4.97;3.83;;;;;;;9.56;100.00;99728.31;4120502;28;20306;-74
2023/09/04 02:54:17;;;;;;;4.07;3.50;;;;;;;9.57;100.00;99729.13;4112677;28;20416;-74
2023/09/04 02:56:17;;;;;;;4.57;3.30;;;;;;;9.56;100.00;99724.75;4120133;28;20034;-74
2023/09/04 02:58:17;;;;;;;4.13;3.38;;;;;;;9.54;100.00;99724.28;4120497;28;20073;-74
2023/09/04 03:00:18;;;;;;;4.35;3.47;;;;;;;9.49;100.00;99727.25;4112424;28;20047;-74
2023/09/04 03:02:18;;;;;;;3.90;3.20;;;;;;;9.49;100.00;99730.81;4107471;28;20035;-74
2023/09/04 03:04:19;;;;;;;6.00;3.40;;;;;;;9.53;100.00;99729.00;4105590;28;20325;-75
2023/09/04 03:06:19;;;;;;;5.10;3.30;;;;;;;9.55;100.00;99731.41;4106707;28;20037;-74
2023/09/04 03:08:19;;;;;;;4.60;3.42;;;;;;;9.60;100.00;99728.44;4117459;28;20033;-74
2023/09/04 03:10:20;;;;;;;4.47;3.25;;;;;;;9.60;100.00;99728.44;4114058;28;23136;-74
2023/09/04 03:12:22;;;;;;;4.75;3.50;;;;;;;9.61;100.00;99727.31;4106352;28;20121;-74
2023/09/04 03:14:22;;;;;;;5.63;3.90;;;;;;;9.61;100.00;99729.25;4106721;28;20043;-74
2023/09/04 03:16:22;;;;;;;5.55;3.65;;;;;;;9.57;100.00;99729.91;4113799;28;20313;-74
2023/09/04 03:18:23;;;;;;;4.00;3.33;;;;;;;9.48;100.00;99712.63;4106574;28;20070;-74
2023/09/04 03:20:23;;;;;;;4.38;3.50;;;;;;;9.45;100.00;99724.38;4106405;28;20455;-74
2023/09/04 03:22:25;;;;;;;4.70;3.53;;;;;;;9.41;100.00;99720.66;4106404;28;20047;-74
2023/09/04 03:24:26;;;;;;;5.03;3.53;;;;;;;9.36;100.00;99715.38;4115217;28;20046;-74
2023/09/04 03:26:26;;;;;;;5.43;3.53;;;;;;;9.31;100.00;99710.03;4120390;28;20401;-74
2023/09/04 03:28:27;;;;;;;6.80;3.83;;;;;;;9.36;100.00;99712.59;4111655;28;20043;-74
2023/09/04 03:30:27;;;;;;;4.95;4.10;;;;;;;9.39;100.00;99708.34;4106887;28;20043;-74
2023/09/04 03:32:28;;;;;;;5.78;3.88;;;;;;;9.40;100.00;99716.28;4105517;28;20108;-74
2023/09/04 03:34:31;;;;;;;7.35;4.00;;;;;;;9.29;100.00;99713.16;4116393;28;20055;-74
2023/09/04 03:36:31;;;;;;;5.63;3.67;;;;;;;9.24;100.00;99726.34;4119772;28;20042;-74
2023/09/04 03:38:32;;;;;;;7.65;3.92;;;;;;;9.19;100.00;99724.63;4112981;28;20241;-74
2023/09/04 03:40:32;;;;;;;5.60;3.70;;;;;;;9.17;100.00;99729.66;4104944;28;20051;-74
2023/09/04 03:42:33;;;;;;;4.10;3.45;;;;;;;9.14;100.00;99724.00;4114893;28;20069;-74
2023/09/04 03:44:33;;;;;;;5.38;3.70;;;;;;;9.16;100.00;99719.75;4117908;28;20062;-74
2023/09/04 03:46:33;;;;;;;4.75;4.03;;;;;;;9.17;100.00;99715.03;4116386;28;20053;-74
2023/09/04 03:48:34;;;;;;;5.07;3.45;;;;;;;9.13;100.00;99719.63;4120464;28;20474;-74
2023/09/04 03:50:35;;;;;;;5.40;3.50;;;;;;;9.11;100.00;99725.50;4110671;28;20358;-74
2023/09/04 03:52:36;;;;;;;3.85;3.17;;;;;;;9.12;100.00;99718.03;4117343;28;20414;-74
2023/09/04 03:54:36;;;;;;;6.65;3.55;;;;;;;9.15;100.00;99715.38;4119930;28;20049;-74
2023/09/04 03:56:36;;;;;;;5.47;3.78;;;;;;;9.14;100.00;99710.19;4107953;28;20051;-74
2023/09/04 03:58:37;;;;;;;4.75;3.75;;;;;;;9.07;100.00;99712.69;4106655;28;20055;-74
2023/09/04 04:00:37;;;;;;;5.55;3.60;;;;;;;9.00;100.00;99719.56;4105173;28;20421;-74
2023/09/04 04:02:38;;;;;;;4.30;3.45;;;;;;;8.97;100.00;99708.41;4105680;28;20123;-74
2023/09/04 04:04:39;;;;;;;3.85;3.42;;;;;;;8.95;100.00;99703.22;4106411;28;20051;-74
2023/09/04 04:06:39;;;;;;;11.40;4.82;;;;;;;8.98;100.00;99712.78;4105857;28;20059;-74
2023/09/04 04:08:40;;;;;;;7.72;4.05;;;;;;;8.97;100.00;99711.16;4106114;28;20047;-74
2023/09/04 04:10:40;;;;;;;4.30;3.25;;;;;;;8.98;100.00;99713.56;4119645;28;20338;-74
2023/09/04 04:12:40;;;;;;;5.20;3.30;;;;;;;8.99;100.00;99714.38;4118758;28;20069;-74
2023/09/04 04:14:41;;;;;;;4.18;3.30;;;;;;;8.96;100.00;99718.63;4113369;28;20058;-74
2023/09/04 04:16:41;;;;;;;7.75;3.83;;;;;;;8.94;100.00;99726.44;4105914;28;20069;-74
2023/09/04 04:18:42;;;;;;;8.07;3.67;;;;;;;8.87;100.00;99715.13;4106360;28;20505;-74
2023/09/04 04:20:42;;;;;;;5.60;3.30;;;;;;;8.82;100.00;99718.09;4120101;28;20062;-74
2023/09/04 04:22:43;;;;;;;5.20;3.58;;;;;;;8.82;100.00;99731.09;4106471;28;20051;-74
2023/09/04 04:24:43;;;;;;;5.20;3.80;;;;;;;8.78;100.00;99736.47;4110085;28;20063;-74
2023/09/04 04:26:43;;;;;;;6.05;3.78;;;;;;;8.75;100.00;99734.38;4115025;28;20054;-74
2023/09/04 04:28:44;;;;;;;4.53;3.90;;;;;;;8.75;100.00;99733.56;4113228;28;20116;-74
2023/09/04 04:30:44;;;;;;;4.28;3.47;;;;;;;8.68;100.00;99731.31;4106061;28;20145;-74
2023/09/04 04:32:44;;;;;;;4.80;3.40;;;;;;;8.68;100.00;99734.91;4105389;28;20058;-74
2023/09/04 04:34:45;;;;;;;4.32;3.33;;;;;;;8.68;100.00;99729.38;4117190;28;20055;-74
2023/09/04 04:36:45;;;;;;;5.28;3.25;;;;;;;8.71;100.00;99727.91;4105845;28;20086;-74
2023/09/04 04:38:45;;;;;;;7.35;3.65;;;;;;;8.75;100.00;99728.84;4120623;28;20046;-74
2023/09/04 04:40:46;;;;;;;6.00;3.35;;;;;;;8.75;100.00;99726.09;4119563;28;20047;-74
2023/09/04 04:42:46;;;;;;;5.72;3.20;;;;;;;8.77;100.00;99731.28;4107663;28;20047;-74
2023/09/04 04:44:46;;;;;;;6.97;3.90;;;;;;;8.79;100.00;99726.25;4106647;28;20062;-74
2023/09/04 04:46:47;;;;;;;11.20;5.10;;;;;;;8.80;100.00;99720.38;4106675;28;20077;-74
2023/09/04 04:48:49;;;;;;;4.47;3.33;;;;;;;8.84;100.00;99726.84;4109460;28;20473;-74
2023/09/04 04:50:49;;;;;;;6.53;3.42;;;;;;;8.80;100.00;99714.88;4106048;28;20142;-74
2023/09/04 04:52:49;;;;;;;5.85;3.17;;;;;;;8.78;100.00;99708.88;4104523;28;20526;-74
2023/09/04 04:54:50;;;;;;;5.63;4.03;;;;;;;8.80;100.00;99717.63;4107956;28;20136;-74
2023/09/04 04:56:50;;;;;;;4.82;3.38;;;;;;;8.79;100.00;99710.50;4117102;28;20123;-74
2023/09/04 04:58:50;;;;;;;8.45;3.70;;;;;;;8.81;100.00;99721.19;4111947;28;20050;-74
2023/09/04 05:00:51;;;;;;;4.72;3.22;;;;;;;8.79;100.00;99713.25;4105549;28;20047;-74
2023/09/04 05:02:52;;;;;;;5.90;3.53;;;;;;;8.78;100.00;99717.16;4104107;28;20126;-74
2023/09/04 05:04:52;;;;;;;10.35;3.83;;;;;;;8.78;100.00;99716.34;4105139;28;20482;-74
2023/09/04 05:06:53;;;;;;;4.90;3.60;;;;;;;8.85;100.00;99716.59;4105214;28;20043;-74
2023/09/04 05:08:53;;;;;;;6.75;3.38;;;;;;;8.91;100.00;99713.31;4113394;28;20199;-74
2023/09/04 05:11:11;;;;;;;6.47;3.50;;;;;;;8.94;100.00;99717.38;4119847;28;20139;-74
2023/09/04 05:13:12;;;;;;;4.05;3.22;;;;;;;8.95;100.00;99721.75;4117386;28;20406;-74
2023/09/04 05:15:12;;;;;;;5.18;4.20;;;;;;;8.92;100.00;99717.69;4120022;28;20099;-74
2023/09/04 05:17:13;;;;;;;7.47;3.60;;;;;;;8.93;100.00;99724.00;4113115;28;20058;-74
2023/09/04 05:19:13;;;;;;;4.60;3.50;;;;;;;8.90;100.00;99714.47;4104965;28;20582;-74
2023/09/04 05:21:14;;;;;;;4.80;3.83;;;;;;;8.92;100.00;99720.44;4105425;28;20042;-74
2023/09/04 05:23:14;;;;;;;6.75;3.95;;;;;;;8.91;100.00;99727.09;4106859;28;20054;-74
2023/09/04 05:25:15;;;;;;;7.50;4.18;;;;;;;8.90;100.00;99719.97;4105431;28;20053;-74
2023/09/04 05:27:15;;;;;;;5.18;3.92;;;;;;;8.93;100.00;99722.06;4105099;28;20107;-74
2023/09/04 05:29:15;;;;;;;5.18;3.80;;;;;;;8.99;100.00;99723.47;4117174;28;20150;-74
2023/09/04 05:31:16;;;;;;;5.50;3.92;;;;;;;9.02;100.00;99730.28;4119632;28;20136;-74
2023/09/04 05:33:16;;;;;;;5.43;3.85;;;;;;;9.05;100.00;99732.38;4114627;28;20234;-74
2023/09/04 05:35:17;;;;;;;4.43;3.72;;;;;;;9.13;100.00;99727.91;4112188;28;20058;-74
2023/09/04 05:37:17;;;;;;;3.85;3.45;;;;;;;9.18;100.00;99733.22;4113738;28;20050;-74
2023/09/04 05:39:17;;;;;;;4.70;3.75;;;;;;;9.22;100.00;99725.88;4118553;28;20056;-74
2023/09/04 05:41:17;;;;;;;8.85;4.30;;;;;;;9.31;100.00;99734.09;4119454;28;20528;-74
2023/09/04 05:43:18;;;;;;;5.18;4.28;;;;;;;9.32;100.00;99721.91;4118671;28;20082;-74
2023/09/04 05:45:21;;;;;;;5.78;4.28;;;;;;;9.36;100.00;99740.22;4116182;28;20046;-74
2023/09/04 05:47:21;;;;;;;4.88;4.28;;;;;;;9.39;100.00;99739.53;4103644;28;20130;-74
2023/09/04 05:49:22;;;;;;;5.07;3.70;;;;;;;9.45;100.00;99743.72;4112427;28;20066;-74
2023/09/04 05:51:22;;;;;;;7.50;4.10;;;;;;;9.51;100.00;99742.31;4118736;28;20054;-74
2023/09/04 05:53:24;;;;;;;5.90;4.35;;;;;;;9.55;100.00;99736.94;4118614;28;20054;-74
2023/09/04 05:55:24;;;;;;;5.72;4.72;;;;;;;9.59;100.00;99737.88;4120162;28;20454;-74
2023/09/04 05:57:25;;;;;;;7.55;4.78;;;;;;;9.70;100.00;99752.06;4107758;28;20266;-74
2023/09/04 05:59:26;;;;;;;9.23;5.30;;;;;;;9.74;100.00;99747.47;4108146;28;20126;-74
2023/09/04 06:01:27;;;;;;;6.55;4.78;;;;;;;9.81;100.00;99751.28;4107889;28;20100;-74
2023/09/04 06:03:27;;;;;;;6.32;5.00;;;;;;;9.86;100.00;99750.28;4107003;28;20162;-74
2023/09/04 06:05:28;;;;;;;6.35;5.40;;;;;;;9.87;100.00;99754.66;4108080;28;20078;-74
2023/09/04 06:07:30;;;;;;;9.68;5.50;;;;;;;9.93;100.00;99757.97;4110192;28;20104;-74
2023/09/04 06:09:30;;;;;;;7.20;5.22;;;;;;;9.98;100.00;99760.53;4107626;28;20142;-74
2023/09/04 06:11:31;;;;;;;6.82;5.13;;;;;;;10.01;100.00;99759.84;4106517;28;20155;-74
2023/09/04 06:13:32;;;;;;;6.40;4.95;;;;;;;10.04;100.00;99761.94;4117378;28;20069;-74
2023/09/04 06:15:32;;;;;;;7.47;5.30;;;;;;;10.08;100.00;99760.91;4120746;28;20505;-74
2023/09/04 06:17:33;;;;;;;7.05;5.22;;;;;;;10.12;100.00;99770.13;4121313;28;20045;-74
2023/09/04 06:19:33;;;;;;;10.73;5.43;;;;;;;10.14;100.00;99770.59;4122397;28;20066;-74
2023/09/04 06:21:33;;;;;;;6.20;5.45;;;;;;;10.19;100.00;99774.28;4122257;28;20511;-74
2023/09/04 06:23:33;;;;;;;8.60;5.57;;;;;;;10.24;100.00;99765.78;4113112;28;20505;-74
2023/09/04 06:25:38;;;;;;;7.07;5.22;;;;;;;10.28;100.00;99777.78;4107390;28;20051;-74
2023/09/04 06:27:38;;;;;;;8.43;5.82;;;;;;;10.39;100.00;99781.72;4107728;28;20049;-74
2023/09/04 06:29:38;;;;;;;7.63;5.53;;;;;;;10.41;100.00;99776.63;4107642;28;20480;-74
2023/09/04 06:31:40;;;;;;;9.52;5.47;;;;;;;10.48;100.00;99781.59;4121765;28;20081;-74
2023/09/04 06:33:40;;;;;;;8.38;5.50;;;;;;;10.56;100.00;99781.47;4121202;28;20113;-74
2023/09/04 06:35:40;;;;;;;7.45;5.88;;;;;;;10.65;100.00;99793.22;4122524;28;20042;-74
2023/09/04 06:37:41;;;;;;;6.47;5.00;;;;;;;10.74;100.00;99784.81;4121630;28;20121;-74
2023/09/04 06:39:41;;;;;;;11.77;5.32;;;;;;;10.82;100.00;99789.41;4113423;28;20045;-74
2023/09/04 06:41:41;;;;;;;7.60;5.18;;;;;;;10.88;100.00;99788.03;4117637;28;20054;-74
2023/09/04 06:43:42;;;;;;;6.10;4.63;;;;;;;10.96;100.00;99791.81;4120358;28;20042;-74
2023/09/04 06:45:42;;;;;;;5.60;4.85;;;;;;;11.02;100.00;99797.94;4113148;28;20054;-74
2023/09/04 06:47:42;;;;;;;6.68;4.95;;;;;;;11.11;100.00;99801.38;4107352;28;20494;-74
2023/09/04 06:49:43;;;;;;;12.15;6.13;;;;;;;11.16;100.00;99795.59;4107263;28;20610;-74
2023/09/04 06:51:43;;;;;;;6.50;5.07;;;;;;;11.21;100.00;99789.81;4118024;28;20081;-74
2023/09/04 06:53:43;;;;;;;8.35;5.05;;;;;;;11.32;100.00;99798.44;4120755;28;20111;-74
2023/09/04 06:55:47;;;;;;;7.00;5.55;;;;;;;11.36;100.00;99797.41;4120646;28;20077;-74
2023/09/04 06:57:47;;;;;;;7.47;5.03;;;;;;;11.39;100.00;99796.69;4120987;28;20585;-74
2023/09/04 06:59:48;;;;;;;8.20;5.57;;;;;;;11.48;100.00;99802.06;4111178;28;20099;-74
2023/09/04 07:01:49;;;;;;;7.88;5.30;;;;;;;11.54;100.00;99807.03;4107248;28;20103;-74
2023/09/04 07:03:49;;;;;;;7.22;5.20;;;;;;;11.63;100.00;99800.53;4106406;28;20050;-74
2023/09/04 07:05:49;;;;;;;8.23;5.35;;;;;;;11.69;100.00;99802.69;4108142;28;20058;-74
2023/09/04 07:07:50;;;;;;;9.23;5.35;;;;;;;11.76;100.00;99802.09;4122387;28;20106;-74
2023/09/04 07:09:50;;;;;;;6.85;4.50;;;;;;;11.85;100.00;99802.78;4121581;28;20054;-74
2023/09/04 07:11:50;;;;;;;8.23;5.70;;;;;;;11.90;100.00;99799.72;4114438;28;20039;-74
2023/09/04 07:13:52;;;;;;;7.82;5.35;;;;;;;11.99;100.00;99794.81;4104980;28;20462;-74
2023/09/04 07:15:52;;;;;;;6.07;4.53;;;;;;;12.07;100.00;99804.13;4106724;28;20402;-74
2023/09/04 07:17:53;;;;;;;7.97;5.43;;;;;;;12.16;100.00;99793.66;4106704;28;20129;-74
2023/09/04 07:19:53;;;;;;;6.70;5.60;;;;;;;12.21;100.00;99795.38;4117397;28;20086;-74
2023/09/04 07:21:54;;;;;;;9.75;6.57;;;;;;;12.29;100.00;99789.66;4111499;28;20431;-74
2023/09/04 07:23:54;;;;;;;9.15;5.50;;;;;;;12.42;100.00;99789.59;4120322;28;20502;-74
2023/09/04 07:25:56;;;;;;;9.85;5.20;;;;;;;12.50;100.00;99785.81;4120917;28;20046;-74
2023/09/04 07:27:57;;;;;;;6.22;4.75;;;;;;;12.58;100.00;99785.63;4110034;28;20073;-74
2023/09/04 07:29:58;;;;;;;9.65;5.25;;;;;;;12.65;100.00;99785.78;4105848;28;20462;-74
2023/09/04 07:31:59;;;;;;;8.25;5.43;;;;;;;12.72;100.00;99785.16;4106857;28;20042;-74
2023/09/04 07:34:01;;;;;;;8.55;5.28;;;;;;;12.83;100.00;99791.78;4105152;28;20055;-74
2023/09/04 07:36:01;;;;;;;8.20;5.50;;;;;;;12.88;100.00;99779.56;4107903;28;20046;-74
2023/09/04 07:38:01;;;;;;;8.30;5.10;;;;;;;12.96;100.00;99780.53;4111192;28;20184;-75
2023/09/04 07:40:05;;;;;;;8.32;5.40;;;;;;;13.07;100.00;99773.25;4106438;28;20031;-74
2023/09/04 07:42:05;;;;;;;6.13;5.20;;;;;;;13.15;100.00;99775.00;4106517;28;20038;-74
2023/09/04 07:44:06;;;;;;;4.97;4.43;;;;;;;13.23;100.00;99771.25;4111103;28;20691;-75
2023/09/04 07:46:06;;;;;;;9.75;4.75;;;;;;;13.35;100.00;99761.97;4119941;28;20080;-74
2023/09/04 07:48:06;;;;;;;5.97;5.18;;;;;;;13.44;100.00;99768.94;4121352;28;20678;-74
2023/09/04 07:50:07;;;;;;;6.47;5.18;;;;;;;13.56;100.00;99762.41;4120795;28;20125;-74
2023/09/04 07:52:07;;;;;;;6.53;4.90;;;;;;;13.67;100.00;99765.41;4121382;28;20381;-74
2023/09/04 07:54:08;;;;;;;6.22;4.53;;;;;;;13.75;100.00;99761.59;4119228;28;20155;-74
2023/09/04 07:56:08;;;;;;;5.60;4.57;;;;;;;13.84;100.00;99764.13;4113532;28;20050;-74
2023/09/04 07:58:09;;;;;;;6.03;4.63;;;;;;;13.93;100.00;99764.72;4109589;28;20155;-74
2023/09/04 08:00:11;;;;;;;5.20;4.50;;;;;;;14.05;100.00;99762.53;4106519;28;20027;-75
2023/09/04 08:02:12;;;;;;;6.70;4.15;;;;;;;14.12;100.00;99756.31;4106165;28;20033;-75
2023/09/04 08:04:13;;;;;;;6.22;4.22;;;;;;;14.23;100.00;99760.09;4103107;28;20117;-75
2023/09/04 08:06:14;;;;;;;5.43;3.90;;;;;;;14.34;100.00;99763.84;4106251;28;20037;-75
2023/09/04 08:08:14;;;;;;;5.55;4.53;;;;;;;14.44;100.00;99764.41;4115055;28;20030;-74
2023/09/04 08:10:14;;;;;;;4.95;4.20;;;;;;;14.51;100.00;99762.56;4121322;28;20031;-74
2023/09/04 08:12:15;;;;;;;5.32;4.50;;;;;;;14.65;100.00;99772.34;4121121;28;20042;-74
2023/09/04 08:14:15;;;;;;;6.63;4.05;;;;;;;14.76;100.00;99768.53;4119189;28;20041;-75
2023/09/04 08:16:15;;;;;;;7.35;3.70;;;;;;;14.87;100.00;99766.69;4121239;28;20109;-75
2023/09/04 08:18:16;;;;;;;4.60;3.90;;;;;;;14.95;100.00;99775.97;4119835;28;20015;-74
2023/09/04 08:20:17;;;;;;;5.32;3.47;;;;;;;14.98;100.00;99769.66;4119834;28;20030;-75
2023/09/04 08:22:17;;;;;;;6.28;3.75;;;;;;;15.03;100.00;99763.75;4120473;28;20068;-75
2023/09/04 08:24:18;;;;;;;6.28;3.90;;;;;;;15.10;100.00;99766.63;4120337;28;20148;-75
2023/09/04 08:26:18;;;;;;;5.15;3.50;;;;;;;15.24;100.00;99768.00;4119515;28;20042;-74
2023/09/04 08:28:18;;;;;;;6.25;3.60;;;;;;;15.33;100.00;99768.53;4120120;28;20034;-74
2023/09/04 08:30:19;;;;;;;5.65;4.03;;;;;;;15.48;100.00;99769.53;4120941;28;20034;-75
2023/09/04 08:32:19;;;;;;;4.43;3.65;;;;;;;15.60;100.00;99763.66;4119951;28;20034;-74
2023/09/04 08:34:20;;;;;;;9.70;4.07;;;;;;;15.71;100.00;99757.06;4119491;28;20105;-75
2023/09/04 08:36:20;;;;;;;5.97;3.78;;;;;;;15.79;100.00;99763.50;4117783;28;20046;-75
2023/09/04 08:38:20;;;;;;;5.63;3.88;;;;;;;15.85;100.00;99755.63;4105333;28;20116;-74
2023/09/04 08:40:21;;;;;;;6.18;3.38;;;;;;;15.94;100.00;99756.91;4110443;28;20063;-74
2023/09/04 08:42:22;;;;;;;4.88;3.35;;;;;;;16.14;100.00;99751.13;4104640;28;20046;-74
2023/09/04 08:44:23;;;;;;;5.35;3.60;;;;;;;16.20;100.00;99753.16;4105462;28;20517;-75
2023/09/04 08:46:28;;;;;;;7.00;3.05;;;;;;;16.27;100.00;99746.84;4116687;28;20062;-75
2023/09/04 08:48:30;;;;;;;5.35;2.78;;;;;;;16.34;100.00;99743.31;4114930;28;20042;-74
2023/09/04 08:50:31;;;;;;;5.95;3.03;;;;;;;16.44;100.00;99751.78;4104903;28;20062;-75
2023/09/04 08:52:31;;;;;;;3.65;2.95;;;;;;;16.56;100.00;99751.50;4112653;28;20108;-74
2023/09/04 08:54:33;;;;;;;5.03;2.47;;;;;;;16.71;100.00;99746.81;4120153;28;20050;-74
2023/09/04 08:56:33;;;;;;;4.20;2.40;;;;;;;16.79;100.00;99739.28;4105040;28;20665;-74
2023/09/04 08:58:34;;;;;;;5.30;2.28;;;;;;;16.83;100.00;99746.50;4105361;28;20349;-74
2023/09/04 09:00:35;;;;;;;3.20;2.47;;;;;;;16.87;100.00;99743.72;4104887;28;20129;-74
2023/09/04 09:02:38;;;;;;;2.63;2.25;;;;;;;16.97;100.00;99739.41;4104285;28;20047;-74
2023/09/04 09:04:38;;;;;;;2.50;1.90;;;;;;;17.05;100.00;99744.66;4105103;28;20065;-75
2023/09/04 09:06:39;;;;;;;3.30;2.30;;;;;;;17.11;100.00;99733.88;4104833;28;20047;-75
2023/09/04 09:08:43;;;;;;;5.80;1.90;;;;;;;17.16;100.00;99730.72;4105011;28;20054;-74
2023/09/04 09:10:46;;;;;;;3.15;2.00;;;;;;;17.27;100.00;99725.16;4103088;28;20475;-74
2023/09/04 09:12:46;;;;;;;;;;;;;;;17.30;100.00;99730.81;4114149;28;20046;-74
2023/09/04 09:14:47;;;;;;;5.70;2.08;;;;;;;17.43;100.00;99725.63;4119195;28;20512;-74
2023/09/04 09:16:47;;;;;;;2.50;2.10;;;;;;;17.45;100.00;99717.66;4118543;28;20325;-75
2023/09/04 09:18:48;;;;;;;2.17;1.98;;;;;;;17.53;100.00;99722.06;4118559;28;20402;-73
2023/09/04 09:20:49;;;;;;;2.78;1.90;;;;;;;17.62;100.00;99730.09;4119756;28;20051;-73
2023/09/04 09:22:50;;;;;;;4.80;1.80;;;;;;;17.65;100.00;99723.72;4117678;28;20053;-73
2023/09/04 09:24:56;;;;;;;3.22;1.90;;;;;;;17.66;100.00;99719.72;4119202;28;20482;-76
2023/09/04 09:26:57;;;;;;;2.65;2.10;;;;;;;17.73;100.00;99721.78;4116381;28;20402;-75